Terminal Aerodrome Forecast
Issued by NWS

Home | Current Version | Previous Version | Text Only | Print | Product List | Glossary On
Versions: 1 2 3 4 5 6 7 8 9 10 11 12 13 14 15 16 17 18 19 20 21 22 23
253
FTUS41 KGYX 102049 AAA
TAFHIE
TAF AMD
KHIE 102049Z 1021/1118 VRB03KT P6SM OVC035
      TEMPO 1022/1102 5SM -SHSN OVC030
     FM111400 30007KT P6SM -SHSN OVC040=

USA.gov is the U.S. government's official web portal to all federal, state and local government web resources and services.